OIBS  Sirri Island  Airport

Iran

Add Bookmark
ICAO OIBS
IATA SXI
Type Airport
Status Operational
Latitude
25° 54' 32" N
25.908899
Longitude
54° 32' 21" E
54.539398
Local (GMT +4.5 ) UTC
Jul 23, 2016 05:35 pm Jul 23, 2016 13:05
Sunrise-Sunset Local UTC
Begin Civil Twilight 05:47 am 01:17
Sunrise 06:12 am 01:42
Sunset 07:44 pm 15:14
End Civil Twilight 08:09 pm 15:39
VFR
VFR
MVFR
MVFR
IFR
IFR
LIFR
LIFR
Unknown
Unavailable

Current Weather

METAR Observed MVFR
OIBS 141500Z 15010KT 5000 HZ NSC 35/27 Q0995 Thu, Jul 14, 2016 @ 15:00 UTC
(1 Week, 1 Day, 22 Hours, 5 Minutes ago)
Marginal Visual Flight Rules
Wind Visibility Conditions
150° at 10 knots (19 kph) 5,005 m
  • Haze
Temperatures Readings Precipitation
Current Temp
35°C
95°F
Dewpoint
27°C
81°F
Heat Index
47°C
116°
Humidity 63%
Altimeter 29.38" Hg
Sea Level Pressure 995 mb
Field Elevation
14 m
46 ft
None Recorded

Additional weather within a 92.6km radius of OIBS

Map ICAO Location
OIBA 49.4km E (094°)
OIBL 74.8km N/NE (022°)
OIBK 88.5km NW (321°)
VFR
VFR
MVFR
MVFR
IFR
IFR
LIFR
LIFR
Unknown
Unavailable
-
-

CheckWX.com is intended as a tool to help pilots better visualize weather data. It is not intended as a substitute for an official weather briefing obtained from a Flight Service Station. CheckWX.com does not meet the FAA requirements for an official pre-flight weather briefing. Therefore, it's important that pilots still call and obtain an official FSS pre-flight weather briefing.

© 2007-2016 CheckWX.com
13:05:28 UTC